Terminal Aerodrome Forecast
Issued by NWS Mt. Holly, NJ

Home | Current Version | Previous Version | Text Only | Print | Product List | Glossary On
Versions: 1 2 3 4 5 6 7 8 9 10 11 12 13 14
000
FTUS41 KPHI 231700
TAFABE
TAF
KABE 231730Z 2318/2418 31018G30KT P6SM BKN040
      TEMPO 2320/2324 SCT040
     FM240000 31015G25KT P6SM SKC
     FM240500 29014KT P6SM SKC
     FM241300 31014G26KT P6SM SKC=

USA.gov is the U.S. government's official web portal to all federal, state and local government web resources and services.